createdAt,value
2017-06-26T00:00:23.069Z,81.09
2017-06-26T00:02:52.857Z,80.79
2017-06-26T00:05:22.610Z,80.49
2017-06-26T00:07:52.304Z,81.06
2017-06-26T00:10:22.980Z,81.18
2017-06-26T00:12:52.666Z,80.60
2017-06-26T00:15:23.169Z,80.06
2017-06-26T00:17:52.857Z,79.77
2017-06-26T00:20:22.594Z,79.10
2017-06-26T00:22:52.451Z,78.13
2017-06-26T00:25:22.217Z,80.74
2017-06-26T00:27:51.953Z,80.81
2017-06-26T00:30:21.758Z,81.42
2017-06-26T00:32:51.533Z,81.66
2017-06-26T00:35:21.309Z,81.87
2017-06-26T00:37:51.586Z,81.60
2017-06-26T00:40:21.349Z,81.13
2017-06-26T00:42:51.129Z,80.53
2017-06-26T00:45:20.893Z,80.80
2017-06-26T00:47:52.949Z,81.24
2017-06-26T00:50:23.723Z,81.22
2017-06-26T00:52:54.152Z,80.74
2017-06-26T00:55:24.124Z,80.67
2017-06-26T00:57:53.929Z,80.98
2017-06-26T01:00:23.641Z,81.40
2017-06-26T01:02:53.369Z,81.77
2017-06-26T01:05:24.001Z,81.32
2017-06-26T01:07:53.858Z,80.46
2017-06-26T01:10:23.632Z,78.95
2017-06-26T01:12:53.009Z,81.05
2017-06-26T01:15:23.680Z,81.83
2017-06-26T01:17:53.507Z,81.02
2017-06-26T01:20:23.371Z,82.08
2017-06-26T01:22:53.179Z,81.93
2017-06-26T01:25:22.878Z,81.67
2017-06-26T01:27:53.111Z,81.32
2017-06-26T01:30:23.149Z,80.46
2017-06-26T01:32:52.893Z,80.39
2017-06-26T01:35:23.176Z,80.59
2017-06-26T01:37:52.918Z,79.52
2017-06-26T01:40:22.653Z,79.22
2017-06-26T01:42:52.037Z,79.23
2017-06-26T01:45:22.072Z,79.96
2017-06-26T01:47:51.798Z,81.40
2017-06-26T01:50:27.145Z,80.71
2017-06-26T01:52:56.873Z,81.28
2017-06-26T01:55:26.269Z,80.86
2017-06-26T01:57:56.131Z,81.21
2017-06-26T02:00:25.878Z,80.57
2017-06-26T02:02:55.601Z,80.53
2017-06-26T02:05:25.461Z,79.93
2017-06-26T02:07:55.207Z,75.87
2017-06-26T02:10:24.979Z,74.74
2017-06-26T02:12:54.755Z,74.36
2017-06-26T02:15:24.571Z,74.11
2017-06-26T02:17:54.274Z,73.67
2017-06-26T02:20:24.012Z,75.49
2017-06-26T02:22:53.815Z,75.02
2017-06-26T02:25:23.630Z,74.71
2017-06-26T02:27:55.972Z,75.05
2017-06-26T02:30:25.726Z,76.99
2017-06-26T02:32:56.162Z,76.62
2017-06-26T02:35:25.841Z,77.80
2017-06-26T02:37:55.593Z,77.78
2017-06-26T02:40:26.065Z,78.10
2017-06-26T02:42:55.833Z,76.82
2017-06-26T02:45:25.610Z,78.01
2017-06-26T02:47:55.943Z,77.98
2017-06-26T02:50:25.701Z,77.71
2017-06-26T02:53:03.501Z,79.02
2017-06-26T02:55:34.298Z,78.93
2017-06-26T02:58:04.941Z,78.91
2017-06-26T03:00:34.542Z,78.33
2017-06-26T03:03:05.058Z,78.85
2017-06-26T03:05:35.451Z,79.41
2017-06-26T03:08:05.694Z,79.55
2017-06-26T03:10:36.117Z,79.55
2017-06-26T03:13:05.858Z,78.17
2017-06-26T03:15:36.195Z,78.41
2017-06-26T03:18:05.953Z,78.79
2017-06-26T03:20:36.397Z,78.44
2017-06-26T03:23:06.725Z,78.03
2017-06-26T03:25:36.497Z,78.04
2017-06-26T03:28:06.223Z,77.69
2017-06-26T03:30:36.031Z,77.80
2017-06-26T03:33:05.737Z,79.06
2017-06-26T03:35:36.010Z,79.78
2017-06-26T03:38:05.822Z,80.12
2017-06-26T03:40:35.605Z,80.10
2017-06-26T03:43:05.449Z,79.39
2017-06-26T03:45:35.217Z,79.69
2017-06-26T03:48:04.946Z,78.54
2017-06-26T03:50:34.890Z,77.43
2017-06-26T03:53:04.654Z,77.70
2017-06-26T03:55:38.995Z,76.82
2017-06-26T03:58:11.871Z,76.53
2017-06-26T04:00:41.607Z,75.73
2017-06-26T04:03:11.292Z,75.98
2017-06-26T04:05:41.485Z,76.52
2017-06-26T04:08:11.276Z,75.12
2017-06-26T04:10:41.093Z,74.50
2017-06-26T04:13:13.267Z,74.51
2017-06-26T04:15:45.091Z,74.18
2017-06-26T04:18:16.936Z,74.69
2017-06-26T04:20:48.708Z,74.08
2017-06-26T04:23:20.749Z,73.65
2017-06-26T04:25:53.522Z,74.39
2017-06-26T04:28:26.540Z,74.59
2017-06-26T04:30:58.069Z,74.79
2017-06-26T04:33:29.955Z,74.15
2017-06-26T04:36:02.313Z,73.15
2017-06-26T04:38:34.706Z,72.13
2017-06-26T04:41:06.790Z,71.42
2017-06-26T04:43:38.945Z,70.51
2017-06-26T04:46:11.220Z,69.18
2017-06-26T04:48:44.046Z,68.36
2017-06-26T04:51:15.720Z,68.11
2017-06-26T04:53:48.603Z,67.44
2017-06-26T04:56:20.357Z,68.17
2017-06-26T04:58:52.631Z,66.51
2017-06-26T05:01:24.585Z,66.16
2017-06-26T05:03:54.437Z,65.47
2017-06-26T05:06:24.143Z,65.48
2017-06-26T05:08:54.542Z,65.29
2017-06-26T05:11:24.205Z,66.41
2017-06-26T05:13:54.758Z,66.51
2017-06-26T05:16:24.573Z,66.29
2017-06-26T05:18:54.306Z,66.33
2017-06-26T05:21:24.029Z,66.72
2017-06-26T05:23:53.827Z,66.23
2017-06-26T05:26:23.629Z,66.06
2017-06-26T05:28:54.585Z,65.41
2017-06-26T05:31:25.889Z,64.89
2017-06-26T05:33:59.077Z,64.48
2017-06-26T05:36:29.748Z,64.13
2017-06-26T05:38:59.432Z,64.30
2017-06-26T05:41:29.887Z,64.02
2017-06-26T05:44:00.654Z,63.62
2017-06-26T05:46:30.557Z,63.73
2017-06-26T05:49:00.358Z,64.09
2017-06-26T05:51:30.102Z,63.99
2017-06-26T05:53:59.934Z,63.68
2017-06-26T05:56:29.735Z,64.22
2017-06-26T05:58:59.567Z,64.28
2017-06-26T06:01:29.998Z,64.83
2017-06-26T06:04:00.391Z,63.82
2017-06-26T06:06:30.085Z,64.53
2017-06-26T06:09:00.685Z,64.99
2017-06-26T06:11:30.450Z,64.72
2017-06-26T06:14:00.146Z,64.06
2017-06-26T06:16:29.878Z,65.22
2017-06-26T06:18:59.702Z,64.01
2017-06-26T06:21:29.542Z,64.26
2017-06-26T06:23:59.993Z,63.57
2017-06-26T06:26:30.677Z,64.38
2017-06-26T06:29:00.393Z,64.42
2017-06-26T06:31:30.094Z,64.11
2017-06-26T06:33:59.849Z,63.85
2017-06-26T06:36:29.617Z,63.97
2017-06-26T06:39:00.089Z,63.68
2017-06-26T06:41:29.703Z,63.41
2017-06-26T06:43:59.546Z,63.33
2017-06-26T06:46:30.294Z,62.86
2017-06-26T06:49:00.105Z,62.84
2017-06-26T06:51:29.836Z,62.90
2017-06-26T06:54:00.175Z,62.86
2017-06-26T06:56:30.453Z,62.65
2017-06-26T06:59:00.225Z,61.78
2017-06-26T07:01:29.971Z,61.15
2017-06-26T07:03:59.757Z,60.63
2017-06-26T07:06:29.517Z,60.81
2017-06-26T07:08:59.278Z,61.68
2017-06-26T07:11:29.630Z,63.17
2017-06-26T07:13:59.446Z,65.24
2017-06-26T07:16:29.146Z,67.79
2017-06-26T07:18:58.982Z,69.86
2017-06-26T07:21:28.787Z,70.27
2017-06-26T07:24:02.535Z,70.48
2017-06-26T07:26:35.172Z,69.42
2017-06-26T07:29:04.896Z,68.13
2017-06-26T07:31:34.678Z,66.73
2017-06-26T07:34:04.433Z,65.25
2017-06-26T07:36:34.179Z,65.13
2017-06-26T07:39:03.370Z,64.79
2017-06-26T07:41:33.206Z,64.46
2017-06-26T07:44:02.937Z,65.57
2017-06-26T07:46:32.712Z,66.48
2017-06-26T07:49:02.469Z,66.63
2017-06-26T07:51:33.689Z,66.79
2017-06-26T07:54:03.451Z,66.55
2017-06-26T07:56:33.377Z,67.46
2017-06-26T07:59:03.050Z,69.06
2017-06-26T08:01:33.014Z,68.42
2017-06-26T08:04:03.346Z,69.21
2017-06-26T08:06:33.177Z,69.75
2017-06-26T08:09:02.732Z,69.35
2017-06-26T08:11:32.406Z,70.57
2017-06-26T08:14:02.195Z,71.19
2017-06-26T08:16:32.597Z,69.94
2017-06-26T08:19:02.358Z,69.56
2017-06-26T08:21:32.038Z,69.50
2017-06-26T08:24:02.587Z,69.84
2017-06-26T08:26:37.119Z,68.68
2017-06-26T08:29:12.979Z,68.67
2017-06-26T08:31:42.846Z,67.81
2017-06-26T08:34:12.574Z,68.49
2017-06-26T08:36:42.426Z,69.06
2017-06-26T08:39:12.288Z,69.19
2017-06-26T08:41:42.033Z,69.44
2017-06-26T08:44:12.507Z,68.81
2017-06-26T08:46:42.351Z,68.28
2017-06-26T08:49:12.101Z,67.94
2017-06-26T08:51:41.813Z,68.77
2017-06-26T08:54:11.593Z,68.57
2017-06-26T08:56:41.354Z,68.97
2017-06-26T08:59:11.120Z,70.89
2017-06-26T09:01:40.876Z,69.79
2017-06-26T09:04:11.339Z,69.73
2017-06-26T09:06:41.075Z,70.60
2017-06-26T09:09:10.810Z,69.07
2017-06-26T09:11:41.358Z,68.42
2017-06-26T09:14:11.818Z,68.30
2017-06-26T09:16:41.678Z,68.31
2017-06-26T09:19:11.395Z,66.94
2017-06-26T09:21:41.118Z,67.59
2017-06-26T09:24:11.021Z,66.44
2017-06-26T09:26:40.765Z,65.21
2017-06-26T09:29:13.591Z,65.50
2017-06-26T09:31:43.323Z,64.81
2017-06-26T09:34:13.026Z,64.41
2017-06-26T09:36:43.393Z,64.13
2017-06-26T09:39:13.188Z,64.46
2017-06-26T09:41:42.926Z,64.46
2017-06-26T09:44:12.662Z,64.37
2017-06-26T09:46:42.442Z,63.59
2017-06-26T09:49:12.189Z,62.87
2017-06-26T09:51:41.506Z,63.35
2017-06-26T09:54:11.372Z,63.09
2017-06-26T09:56:41.184Z,59.20
2017-06-26T09:59:11.214Z,58.51
2017-06-26T10:01:40.951Z,60.20
2017-06-26T10:04:10.750Z,60.19
2017-06-26T10:06:40.538Z,60.39
2017-06-26T10:09:10.305Z,60.55
2017-06-26T10:11:40.933Z,60.00
2017-06-26T10:14:11.438Z,59.76
2017-06-26T10:16:41.158Z,58.83
2017-06-26T10:19:10.976Z,58.21
2017-06-26T10:21:40.705Z,57.73
2017-06-26T10:24:10.477Z,58.14
2017-06-26T10:26:40.233Z,57.67
2017-06-26T10:29:09.946Z,57.52
2017-06-26T10:31:43.575Z,57.47
2017-06-26T10:34:15.945Z,57.40
2017-06-26T10:36:45.770Z,57.96
2017-06-26T10:39:15.460Z,56.93
2017-06-26T10:41:45.231Z,56.51
2017-06-26T10:44:15.754Z,57.49
2017-06-26T10:46:45.429Z,55.08
2017-06-26T10:49:15.721Z,55.51
2017-06-26T10:51:45.396Z,55.44
2017-06-26T10:54:15.126Z,55.19
2017-06-26T10:56:45.085Z,55.79
2017-06-26T10:59:14.778Z,54.53
2017-06-26T11:01:44.530Z,53.68
2017-06-26T11:04:14.874Z,54.25
2017-06-26T11:06:44.628Z,53.22
2017-06-26T11:09:14.361Z,54.23
2017-06-26T11:11:44.055Z,54.63
2017-06-26T11:14:13.765Z,51.14
2017-06-26T11:16:43.505Z,50.76
2017-06-26T11:19:13.281Z,51.55
2017-06-26T11:21:43.017Z,52.76
2017-06-26T11:24:12.745Z,53.18
2017-06-26T11:26:42.566Z,51.81
2017-06-26T11:29:12.239Z,51.68
2017-06-26T11:31:42.855Z,51.43
2017-06-26T11:34:20.628Z,50.78
2017-06-26T11:36:51.076Z,51.37
2017-06-26T11:39:20.847Z,52.80
2017-06-26T11:41:51.105Z,51.33
2017-06-26T11:44:20.797Z,52.72
2017-06-26T11:46:50.490Z,52.85
2017-06-26T11:49:20.257Z,52.50
2017-06-26T11:51:49.947Z,51.39
2017-06-26T11:54:19.709Z,51.39
2017-06-26T11:56:49.456Z,51.20
2017-06-26T11:59:19.157Z,50.26
2017-06-26T12:01:48.998Z,50.30
2017-06-26T12:04:18.777Z,49.71
2017-06-26T12:06:48.511Z,49.28
2017-06-26T12:09:18.341Z,50.00
2017-06-26T12:11:48.118Z,50.79
2017-06-26T12:14:18.485Z,50.61
2017-06-26T12:16:48.163Z,50.83
2017-06-26T12:19:18.643Z,51.46
2017-06-26T12:21:48.424Z,52.86
2017-06-26T12:24:18.218Z,52.69
2017-06-26T12:26:48.002Z,53.05
2017-06-26T12:29:18.334Z,52.05
2017-06-26T12:31:48.153Z,51.74
2017-06-26T12:34:17.842Z,51.86
2017-06-26T12:36:47.534Z,51.16
2017-06-26T12:39:17.345Z,51.23
2017-06-26T12:41:47.042Z,52.12
2017-06-26T12:44:16.836Z,51.23
2017-06-26T12:46:46.590Z,51.25
2017-06-26T12:49:16.273Z,50.69
2017-06-26T12:51:46.713Z,50.86
2017-06-26T12:54:16.441Z,51.03
2017-06-26T12:56:46.177Z,51.89
2017-06-26T12:59:15.970Z,53.06
2017-06-26T13:01:45.771Z,53.13
2017-06-26T13:04:16.062Z,52.92
2017-06-26T13:06:45.823Z,52.51
2017-06-26T13:09:15.598Z,51.70
2017-06-26T13:11:45.377Z,52.63
2017-06-26T13:14:15.170Z,51.81
2017-06-26T13:16:44.923Z,52.59
2017-06-26T13:19:14.697Z,51.93
2017-06-26T13:21:44.478Z,51.83
2017-06-26T13:24:14.709Z,52.66
2017-06-26T13:26:44.477Z,52.30
2017-06-26T13:29:14.168Z,53.06
2017-06-26T13:31:43.889Z,53.20
2017-06-26T13:34:13.594Z,53.48
2017-06-26T13:36:43.381Z,53.67
2017-06-26T13:39:17.500Z,54.67
2017-06-26T13:41:48.186Z,55.00
2017-06-26T13:44:18.009Z,54.94
2017-06-26T13:46:47.775Z,54.69
2017-06-26T13:49:18.245Z,54.36
2017-06-26T13:51:47.921Z,55.62
2017-06-26T13:54:18.420Z,55.88
2017-06-26T13:56:48.716Z,55.69
2017-06-26T13:59:18.506Z,55.47
2017-06-26T14:01:48.254Z,55.44
2017-06-26T14:04:18.017Z,56.09
2017-06-26T14:06:47.981Z,56.00
2017-06-26T14:09:17.672Z,56.37
2017-06-26T14:11:47.410Z,57.31
2017-06-26T14:14:17.748Z,57.77
2017-06-26T14:16:47.565Z,58.42
2017-06-26T14:19:17.345Z,58.55
2017-06-26T14:21:47.078Z,58.16
2017-06-26T14:24:16.774Z,57.45
2017-06-26T14:26:46.508Z,56.51
2017-06-26T14:29:16.228Z,56.00
2017-06-26T14:31:45.918Z,56.17
2017-06-26T14:34:15.713Z,55.99
2017-06-26T14:36:46.041Z,56.98
2017-06-26T14:39:16.337Z,56.07
2017-06-26T14:41:55.092Z,55.80
2017-06-26T14:44:26.539Z,55.65
2017-06-26T14:46:56.877Z,54.94
2017-06-26T14:49:26.605Z,55.15
2017-06-26T14:51:56.647Z,55.83
2017-06-26T14:54:26.353Z,55.75
2017-06-26T14:56:56.853Z,55.71
2017-06-26T14:59:26.706Z,55.82
2017-06-26T15:01:57.033Z,55.26
2017-06-26T15:04:26.834Z,55.62
2017-06-26T15:06:56.558Z,55.98
2017-06-26T15:09:27.141Z,56.35
2017-06-26T15:11:56.954Z,56.59
2017-06-26T15:14:26.680Z,56.67
2017-06-26T15:16:56.426Z,57.04
2017-06-26T15:19:26.265Z,56.61
2017-06-26T15:21:56.058Z,56.75
2017-06-26T15:24:26.339Z,56.09
2017-06-26T15:26:56.084Z,55.98
2017-06-26T15:29:25.783Z,56.48
2017-06-26T15:31:55.513Z,56.51
2017-06-26T15:34:25.194Z,55.90
2017-06-26T15:36:55.002Z,56.06
2017-06-26T15:39:24.757Z,55.77
2017-06-26T15:41:54.465Z,55.64
2017-06-26T15:44:24.218Z,55.90
2017-06-26T15:46:54.059Z,55.77
2017-06-26T15:49:23.789Z,56.05
2017-06-26T15:51:53.539Z,56.10
2017-06-26T15:54:23.227Z,56.04
2017-06-26T15:56:52.977Z,56.05
2017-06-26T15:59:22.752Z,56.12
2017-06-26T16:01:52.625Z,55.89
2017-06-26T16:04:26.631Z,56.29
2017-06-26T16:06:57.835Z,55.64
2017-06-26T16:09:27.557Z,55.33
2017-06-26T16:11:57.813Z,55.37
2017-06-26T16:14:27.604Z,56.32
2017-06-26T16:16:57.280Z,56.35
2017-06-26T16:19:27.076Z,56.43
2017-06-26T16:21:56.827Z,56.64
2017-06-26T16:24:26.553Z,56.53
2017-06-26T16:26:56.517Z,56.60
2017-06-26T16:29:26.206Z,56.82
2017-06-26T16:31:55.941Z,56.60
2017-06-26T16:34:25.637Z,57.49
2017-06-26T16:36:55.454Z,57.68
2017-06-26T16:39:25.237Z,58.01
2017-06-26T16:41:54.914Z,59.73
2017-06-26T16:44:24.633Z,59.19
2017-06-26T16:46:55.111Z,58.59
2017-06-26T16:49:24.881Z,58.48
2017-06-26T16:51:54.642Z,57.87
2017-06-26T16:54:24.341Z,57.88
2017-06-26T16:56:54.066Z,58.40
2017-06-26T16:59:23.804Z,59.21
2017-06-26T17:01:53.646Z,58.89
2017-06-26T17:04:23.410Z,58.96
2017-06-26T17:06:53.083Z,59.53
2017-06-26T17:09:22.836Z,59.62
2017-06-26T17:11:52.532Z,59.29
2017-06-26T17:14:22.327Z,58.61
2017-06-26T17:16:52.725Z,59.43
2017-06-26T17:19:22.562Z,59.00
2017-06-26T17:21:53.090Z,59.15
2017-06-26T17:24:24.790Z,59.65
2017-06-26T17:26:54.874Z,59.84
2017-06-26T17:29:24.700Z,60.09
2017-06-26T17:31:54.389Z,60.14
2017-06-26T17:34:24.052Z,60.24
2017-06-26T17:36:53.748Z,60.57
2017-06-26T17:39:23.502Z,60.11
2017-06-26T17:41:54.765Z,59.50
2017-06-26T17:44:24.456Z,59.89
2017-06-26T17:46:54.145Z,60.84
2017-06-26T17:49:24.445Z,60.97
2017-06-26T17:51:54.753Z,60.64
2017-06-26T17:54:24.572Z,60.55
2017-06-26T17:56:54.353Z,60.09
2017-06-26T17:59:24.062Z,60.03
2017-06-26T18:01:54.084Z,60.60
2017-06-26T18:04:24.802Z,60.93
2017-06-26T18:06:54.680Z,61.91
2017-06-26T18:09:24.462Z,62.62
2017-06-26T18:11:54.709Z,62.60
2017-06-26T18:14:24.536Z,62.46
2017-06-26T18:16:54.281Z,62.95
2017-06-26T18:19:24.062Z,63.43
2017-06-26T18:21:53.931Z,63.52
2017-06-26T18:24:23.926Z,63.61
2017-06-26T18:26:53.757Z,65.12
2017-06-26T18:29:23.993Z,65.44
2017-06-26T18:31:54.108Z,63.69
2017-06-26T18:34:23.869Z,63.62
2017-06-26T18:36:53.550Z,64.09
2017-06-26T18:39:23.881Z,63.89
2017-06-26T18:41:54.395Z,64.19
2017-06-26T18:44:24.145Z,65.05
2017-06-26T18:46:54.069Z,63.63
2017-06-26T18:49:23.917Z,65.52
2017-06-26T18:51:55.059Z,65.16
2017-06-26T18:54:29.529Z,65.60
2017-06-26T18:56:59.477Z,64.55
2017-06-26T18:59:29.315Z,64.79
2017-06-26T19:01:59.065Z,63.21
2017-06-26T19:04:28.795Z,64.09
2017-06-26T19:07:00.555Z,63.15
2017-06-26T19:09:32.533Z,63.57
2017-06-26T19:12:02.882Z,63.80
2017-06-26T19:14:36.977Z,64.68
2017-06-26T19:19:48.362Z,65.18
2017-06-26T19:22:18.073Z,64.71
2017-06-26T19:24:49.418Z,63.20
2017-06-26T19:27:22.212Z,63.06
2017-06-26T19:29:55.709Z,64.10
2017-06-26T19:32:26.633Z,64.80
2017-06-26T19:34:56.462Z,65.79
2017-06-26T19:37:26.163Z,65.58
2017-06-26T19:39:57.381Z,66.49
2017-06-26T19:42:28.913Z,67.52
2017-06-26T19:45:01.973Z,67.55
2017-06-26T19:47:32.122Z,67.98
2017-06-26T19:50:01.903Z,68.39
2017-06-26T19:52:31.637Z,68.98
2017-06-26T19:55:01.377Z,69.36
2017-06-26T19:57:31.170Z,69.27
2017-06-26T20:00:02.384Z,69.96
2017-06-26T20:02:34.701Z,70.37
2017-06-26T20:05:07.923Z,70.91
2017-06-26T20:07:41.184Z,71.21
2017-06-26T20:10:14.075Z,71.31
2017-06-26T20:12:46.310Z,71.29
2017-06-26T20:15:18.828Z,71.82
2017-06-26T20:17:52.135Z,72.89
2017-06-26T20:20:23.921Z,73.39
2017-06-26T20:22:55.511Z,72.81
2017-06-26T20:25:27.741Z,72.90
2017-06-26T20:27:59.302Z,73.10
2017-06-26T20:30:32.157Z,73.06
2017-06-26T20:33:04.748Z,73.34
2017-06-26T20:35:37.834Z,73.83
2017-06-26T20:38:10.262Z,75.04
2017-06-26T20:40:40.438Z,74.87
2017-06-26T20:43:10.353Z,75.49
2017-06-26T20:45:41.447Z,74.46
2017-06-26T20:48:11.134Z,73.90
2017-06-26T20:50:40.888Z,74.32
2017-06-26T20:53:10.689Z,74.35
2017-06-26T20:55:40.449Z,75.49
2017-06-26T20:58:10.191Z,76.11
2017-06-26T21:00:39.933Z,75.79
2017-06-26T21:03:09.747Z,76.40
2017-06-26T21:05:39.516Z,76.81
2017-06-26T21:08:10.677Z,76.62
2017-06-26T21:10:40.753Z,76.18
2017-06-26T21:13:10.706Z,76.03
2017-06-26T21:15:43.884Z,75.95
2017-06-26T21:18:16.317Z,75.72
2017-06-26T21:20:47.498Z,75.74
2017-06-26T21:23:17.195Z,75.96
2017-06-26T21:25:46.875Z,76.79
2017-06-26T21:28:16.680Z,77.72
2017-06-26T21:30:47.250Z,77.54
2017-06-26T21:33:17.027Z,78.01
2017-06-26T21:35:46.770Z,78.06
2017-06-26T21:38:16.482Z,77.60
2017-06-26T21:40:46.823Z,77.56
2017-06-26T21:43:16.541Z,77.72
2017-06-26T21:45:46.262Z,78.74
2017-06-26T21:48:16.041Z,79.12
2017-06-26T21:50:46.517Z,79.13
2017-06-26T21:53:16.829Z,78.93
2017-06-26T21:55:46.602Z,78.92
2017-06-26T21:58:16.359Z,78.97
2017-06-26T22:00:46.051Z,78.75
2017-06-26T22:03:15.802Z,79.01
2017-06-26T22:05:45.231Z,79.02
2017-06-26T22:08:15.094Z,79.52
2017-06-26T22:10:44.825Z,80.12
2017-06-26T22:13:14.539Z,80.03
2017-06-26T22:15:44.350Z,79.90
2017-06-26T22:18:14.053Z,80.02
2017-06-26T22:20:46.790Z,79.85
2017-06-26T22:23:16.461Z,79.43
2017-06-26T22:25:46.140Z,79.43
2017-06-26T22:28:15.909Z,80.20
2017-06-26T22:30:45.614Z,80.66
2017-06-26T22:33:15.374Z,80.91
2017-06-26T22:35:45.057Z,80.59
2017-06-26T22:38:14.928Z,80.62
2017-06-26T22:40:44.693Z,80.89
2017-06-26T22:43:14.376Z,81.03
2017-06-26T22:45:44.098Z,82.13
2017-06-26T22:48:13.878Z,81.12
2017-06-26T22:50:43.678Z,81.60
2017-06-26T22:53:13.433Z,81.74
2017-06-26T22:55:43.218Z,81.29
2017-06-26T22:58:13.126Z,81.47
2017-06-26T23:00:42.873Z,81.65
2017-06-26T23:03:12.590Z,81.35
2017-06-26T23:05:42.317Z,81.42
2017-06-26T23:08:12.589Z,82.02
2017-06-26T23:10:42.381Z,81.72
2017-06-26T23:13:12.181Z,82.26
2017-06-26T23:15:42.063Z,82.34
2017-06-26T23:18:11.832Z,82.65
2017-06-26T23:20:41.619Z,83.12
2017-06-26T23:23:13.459Z,82.71
2017-06-26T23:25:46.901Z,83.19
2017-06-26T23:28:17.273Z,83.17
2017-06-26T23:30:48.144Z,83.08
2017-06-26T23:33:18.020Z,83.24
2017-06-26T23:35:47.857Z,83.02
2017-06-26T23:38:17.602Z,82.77
2017-06-26T23:40:48.325Z,82.90
2017-06-26T23:43:18.005Z,82.85
2017-06-26T23:45:47.752Z,82.87
2017-06-26T23:48:17.466Z,82.92
2017-06-26T23:50:47.138Z,83.08
2017-06-26T23:53:17.090Z,83.04
2017-06-26T23:55:47.090Z,83.68
2017-06-26T23:58:16.830Z,83.42
